createdAt,value
2018-07-20T00:01:36.893Z,19.00
2018-07-20T00:04:04.981Z,18.90
2018-07-20T00:06:33.028Z,19.00
2018-07-20T00:09:01.096Z,19.00
2018-07-20T00:11:29.174Z,18.90
2018-07-20T00:13:57.241Z,18.90
2018-07-20T00:16:25.320Z,18.90
2018-07-20T00:18:53.358Z,18.80
2018-07-20T00:21:21.413Z,18.80
2018-07-20T00:23:49.763Z,18.80
2018-07-20T00:26:17.844Z,18.80
2018-07-20T00:28:45.890Z,18.70
2018-07-20T00:31:13.956Z,18.70
2018-07-20T00:36:10.804Z,18.60
2018-07-20T00:38:39.070Z,18.60
2018-07-20T00:41:07.149Z,18.60
2018-07-20T00:43:35.216Z,18.60
2018-07-20T00:46:03.295Z,18.60
2018-07-20T00:48:31.339Z,18.60
2018-07-20T00:50:59.392Z,18.60
2018-07-20T00:55:55.428Z,18.50
2018-07-20T01:00:51.460Z,18.50
2018-07-20T01:03:19.617Z,18.40
2018-07-20T01:05:47.717Z,18.40
2018-07-20T01:08:15.848Z,18.40
2018-07-20T01:10:43.880Z,18.30
2018-07-20T01:13:11.945Z,18.30
2018-07-20T01:15:39.996Z,18.30
2018-07-20T01:18:08.045Z,18.30
2018-07-20T01:20:36.109Z,18.30
2018-07-20T01:23:04.186Z,18.20
2018-07-20T01:25:32.261Z,18.30
2018-07-20T01:28:00.369Z,18.30
2018-07-20T01:30:28.414Z,18.30
2018-07-20T01:32:56.455Z,18.20
2018-07-20T01:35:24.513Z,18.20
2018-07-20T01:37:52.585Z,18.10
2018-07-20T01:40:20.640Z,18.10
2018-07-20T01:42:48.688Z,18.10
2018-07-20T01:45:16.720Z,18.10
2018-07-20T01:47:44.774Z,18.00
2018-07-20T01:50:12.939Z,18.00
2018-07-20T01:52:40.988Z,18.00
2018-07-20T01:55:09.013Z,18.00
2018-07-20T01:57:37.077Z,17.90
2018-07-20T02:00:05.350Z,17.90
2018-07-20T02:02:33.626Z,17.80
2018-07-20T02:05:01.664Z,17.80
2018-07-20T02:09:58.006Z,17.70
2018-07-20T02:12:26.073Z,17.70
2018-07-20T02:14:54.101Z,17.70
2018-07-20T02:17:22.133Z,17.70
2018-07-20T02:19:50.221Z,17.70
2018-07-20T02:22:18.252Z,17.70
2018-07-20T02:24:46.321Z,17.60
2018-07-20T02:27:14.357Z,17.60
2018-07-20T02:29:42.412Z,17.60
2018-07-20T02:32:10.472Z,17.50
2018-07-20T02:34:38.526Z,17.50
2018-07-20T02:37:06.600Z,17.60
2018-07-20T02:39:34.663Z,17.50
2018-07-20T02:42:02.697Z,17.50
2018-07-20T02:44:30.760Z,17.40
2018-07-20T02:46:58.805Z,17.40
2018-07-20T02:49:26.841Z,17.40
2018-07-20T02:51:54.913Z,17.40
2018-07-20T02:54:22.929Z,17.40
2018-07-20T02:56:50.999Z,17.40
2018-07-20T02:59:19.017Z,17.40
2018-07-20T03:01:47.076Z,17.40
2018-07-20T03:04:15.118Z,17.40
2018-07-20T03:06:43.132Z,17.30
2018-07-20T03:09:12.765Z,17.30
2018-07-20T03:11:41.224Z,17.30
2018-07-20T03:14:09.298Z,17.30
2018-07-20T03:16:37.481Z,17.20
2018-07-20T03:19:05.832Z,17.20
2018-07-20T03:21:33.891Z,17.20
2018-07-20T03:24:01.922Z,17.20
2018-07-20T03:26:29.972Z,17.20
2018-07-20T03:28:58.001Z,17.20
2018-07-20T03:31:26.053Z,17.20
2018-07-20T03:33:54.133Z,17.20
2018-07-20T03:36:22.296Z,17.20
2018-07-20T03:38:50.472Z,17.20
2018-07-20T03:41:18.544Z,17.20
2018-07-20T03:43:46.576Z,17.20
2018-07-20T03:46:14.646Z,17.20
2018-07-20T03:48:42.691Z,17.20
2018-07-20T03:51:10.754Z,17.30
2018-07-20T03:53:38.777Z,17.20
2018-07-20T03:58:34.700Z,17.20
2018-07-20T04:01:02.773Z,17.20
2018-07-20T04:03:30.848Z,17.20
2018-07-20T04:05:58.872Z,17.20
2018-07-20T04:08:26.921Z,17.20
2018-07-20T04:10:54.980Z,17.20
2018-07-20T04:13:23.024Z,17.20
2018-07-20T04:15:51.080Z,17.20
2018-07-20T04:18:19.101Z,17.10
2018-07-20T04:20:47.168Z,17.10
2018-07-20T04:23:15.303Z,17.10
2018-07-20T04:25:43.344Z,17.10
2018-07-20T04:30:39.284Z,17.20
2018-07-20T04:33:07.352Z,17.20
2018-07-20T04:35:35.400Z,17.20
2018-07-20T04:38:03.469Z,17.20
2018-07-20T04:40:31.504Z,17.20
2018-07-20T04:42:59.606Z,17.20
2018-07-20T04:45:27.657Z,17.20
2018-07-20T04:52:51.605Z,17.30
2018-07-20T04:55:19.656Z,17.30
2018-07-20T04:57:47.697Z,17.30
2018-07-20T05:00:15.760Z,17.30
2018-07-20T05:02:43.832Z,17.40
2018-07-20T05:05:11.872Z,17.30
2018-07-20T05:07:39.914Z,17.30
2018-07-20T05:10:07.949Z,17.20
2018-07-20T05:12:35.992Z,17.30
2018-07-20T05:15:04.090Z,17.30
2018-07-20T05:17:32.149Z,17.40
2018-07-20T05:20:00.206Z,17.40
2018-07-20T05:24:57.004Z,17.50
2018-07-20T05:27:25.046Z,17.60
2018-07-20T05:29:53.106Z,17.60
2018-07-20T05:32:21.130Z,17.60
2018-07-20T05:34:49.194Z,17.60
2018-07-20T05:37:17.236Z,17.50
2018-07-20T05:39:45.559Z,17.60
2018-07-20T05:42:13.617Z,17.50
2018-07-20T05:44:41.660Z,17.30
2018-07-20T05:47:09.721Z,17.30
2018-07-20T05:49:37.751Z,17.30
2018-07-20T05:52:05.867Z,17.40
2018-07-20T05:54:33.920Z,17.50
2018-07-20T05:57:01.969Z,17.50
2018-07-20T05:59:30.062Z,17.60
2018-07-20T06:01:58.130Z,17.70
2018-07-20T06:04:26.224Z,17.70
2018-07-20T06:06:54.320Z,17.80
2018-07-20T06:09:22.523Z,17.90
2018-07-20T06:11:50.786Z,17.90
2018-07-20T06:14:18.838Z,18.00
2018-07-20T06:16:46.907Z,18.10
2018-07-20T06:19:14.946Z,18.30
2018-07-20T06:21:43.038Z,18.40
2018-07-20T06:24:11.055Z,18.40
2018-07-20T06:26:39.089Z,18.60
2018-07-20T06:31:35.030Z,18.60
2018-07-20T06:34:03.100Z,18.60
2018-07-20T06:36:31.319Z,18.60
2018-07-20T06:38:59.554Z,18.60
2018-07-20T06:41:29.139Z,18.70
2018-07-20T06:43:58.556Z,18.70
2018-07-20T06:46:29.025Z,18.70
2018-07-20T06:48:58.351Z,18.80
2018-07-20T06:51:27.884Z,19.00
2018-07-20T06:53:57.882Z,19.10
2018-07-20T06:56:25.997Z,19.20
2018-07-20T06:58:54.134Z,19.30
2018-07-20T07:01:22.268Z,19.40
2018-07-20T07:03:50.321Z,19.50
2018-07-20T07:06:18.381Z,19.60
2018-07-20T07:08:46.454Z,19.70
2018-07-20T07:11:14.653Z,19.80
2018-07-20T07:13:42.724Z,19.90
2018-07-20T07:16:10.788Z,20.10
2018-07-20T07:18:38.891Z,20.40
2018-07-20T07:21:06.960Z,20.60
2018-07-20T07:23:35.380Z,20.70
2018-07-20T07:26:03.397Z,20.90
2018-07-20T07:28:31.622Z,21.10
2018-07-20T07:30:59.764Z,21.20
2018-07-20T07:33:27.825Z,21.50
2018-07-20T07:35:55.982Z,21.60
2018-07-20T07:38:24.120Z,21.70
2018-07-20T07:40:52.209Z,21.60
2018-07-20T07:43:20.285Z,21.70
2018-07-20T07:45:48.304Z,22.00
2018-07-20T07:48:16.336Z,21.80
2018-07-20T07:50:44.385Z,21.80
2018-07-20T07:53:12.528Z,22.00
2018-07-20T07:55:40.580Z,22.60
2018-07-20T07:58:08.769Z,23.10
2018-07-20T08:00:36.869Z,23.60
2018-07-20T08:03:04.968Z,24.20
2018-07-20T08:05:33.125Z,24.80
2018-07-20T08:08:01.186Z,25.40
2018-07-20T08:10:29.244Z,25.60
2018-07-20T08:12:57.302Z,26.00
2018-07-20T08:15:25.340Z,26.30
2018-07-20T08:17:53.416Z,26.40
2018-07-20T08:20:21.455Z,25.80
2018-07-20T08:22:49.569Z,25.80
2018-07-20T08:25:17.564Z,25.50
2018-07-20T08:27:45.606Z,25.00
2018-07-20T08:30:13.652Z,25.00
2018-07-20T08:32:41.708Z,24.90
2018-07-20T08:35:11.981Z,24.90
2018-07-20T08:37:40.104Z,24.90
2018-07-20T08:40:08.150Z,25.00
2018-07-20T08:42:36.213Z,25.10
2018-07-20T08:45:04.446Z,25.40
2018-07-20T08:47:32.585Z,25.70
2018-07-20T08:50:00.620Z,25.90
2018-07-20T08:52:28.648Z,26.20
2018-07-20T08:54:56.697Z,26.50
2018-07-20T08:57:24.745Z,26.60
2018-07-20T08:59:52.828Z,26.70
2018-07-20T09:02:20.872Z,26.90
2018-07-20T09:04:48.935Z,26.80
2018-07-20T09:07:16.969Z,26.60
2018-07-20T09:09:45.000Z,26.80
2018-07-20T09:12:13.060Z,26.90
2018-07-20T09:14:41.097Z,27.20
2018-07-20T09:17:09.153Z,27.40
2018-07-20T09:19:38.483Z,27.60
2018-07-20T09:22:07.166Z,27.80
2018-07-20T09:24:36.441Z,27.80
2018-07-20T09:27:05.262Z,28.00
2018-07-20T09:29:34.008Z,28.10
2018-07-20T09:32:02.470Z,28.30
2018-07-20T09:34:31.216Z,27.80
2018-07-20T09:36:59.306Z,27.90
2018-07-20T09:39:27.336Z,28.10
2018-07-20T09:41:55.415Z,28.20
2018-07-20T09:44:23.505Z,27.70
2018-07-20T09:46:51.568Z,27.60
2018-07-20T09:49:19.593Z,27.40
2018-07-20T09:51:47.654Z,27.40
2018-07-20T09:54:15.730Z,27.70
2018-07-20T09:56:43.776Z,27.50
2018-07-20T09:59:11.944Z,27.80
2018-07-20T10:01:39.988Z,28.00
2018-07-20T10:04:08.041Z,27.60
2018-07-20T10:06:36.232Z,27.50
2018-07-20T10:09:07.645Z,27.70
2018-07-20T10:14:03.597Z,27.90
2018-07-20T10:16:31.628Z,28.00
2018-07-20T10:18:59.695Z,28.20
2018-07-20T10:21:27.737Z,28.60
2018-07-20T10:23:55.785Z,28.40
2018-07-20T10:26:23.852Z,28.50
2018-07-20T10:28:51.900Z,28.80
2018-07-20T10:31:19.925Z,29.00
2018-07-20T10:33:47.985Z,28.10
2018-07-20T10:36:16.033Z,28.00
2018-07-20T10:38:44.088Z,28.20
2018-07-20T10:41:12.155Z,28.10
2018-07-20T10:43:40.200Z,28.40
2018-07-20T10:48:36.090Z,28.90
2018-07-20T10:51:04.161Z,29.10
2018-07-20T10:53:32.212Z,29.30
2018-07-20T10:56:00.276Z,29.00
2018-07-20T11:00:56.153Z,29.10
2018-07-20T11:03:24.222Z,29.30
2018-07-20T11:05:52.273Z,29.40
2018-07-20T11:08:20.361Z,29.40
2018-07-20T11:10:48.384Z,29.50
2018-07-20T11:13:16.436Z,29.60
2018-07-20T11:15:44.493Z,29.70
2018-07-20T11:18:12.651Z,28.90
2018-07-20T11:20:40.775Z,28.80
2018-07-20T11:23:08.916Z,28.90
2018-07-20T11:25:36.962Z,29.00
2018-07-20T11:28:05.080Z,29.10
2018-07-20T11:30:33.096Z,28.70
2018-07-20T11:33:01.143Z,28.70
2018-07-20T11:35:29.189Z,28.60
2018-07-20T11:37:58.081Z,28.70
2018-07-20T11:40:26.137Z,28.80
2018-07-20T11:42:54.183Z,28.80
2018-07-20T11:45:22.260Z,28.80
2018-07-20T11:47:50.289Z,28.70
2018-07-20T11:50:18.332Z,28.50
2018-07-20T11:52:46.384Z,27.50
2018-07-20T11:55:14.479Z,27.60
2018-07-20T11:57:42.502Z,27.60
2018-07-20T12:00:10.548Z,27.80
2018-07-20T12:02:38.576Z,27.80
2018-07-20T12:07:34.465Z,27.90
2018-07-20T12:10:02.494Z,27.90
2018-07-20T12:12:30.566Z,27.80
2018-07-20T12:14:58.597Z,28.00
2018-07-20T12:17:26.663Z,28.10
2018-07-20T12:19:54.705Z,28.20
2018-07-20T12:22:22.732Z,28.10
2018-07-20T12:24:50.800Z,27.90
2018-07-20T12:27:18.860Z,28.00
2018-07-20T12:29:46.898Z,28.00
2018-07-20T12:32:14.940Z,28.00
2018-07-20T12:34:42.985Z,27.90
2018-07-20T12:37:11.053Z,27.90
2018-07-20T12:39:39.093Z,27.60
2018-07-20T12:42:07.133Z,27.30
2018-07-20T12:44:35.180Z,27.30
2018-07-20T12:47:03.323Z,27.40
2018-07-20T12:49:31.357Z,27.20
2018-07-20T12:51:59.415Z,26.90
2018-07-20T12:54:27.485Z,26.70
2018-07-20T12:56:55.536Z,26.50
2018-07-20T12:59:23.620Z,26.60
2018-07-20T13:01:51.676Z,26.70
2018-07-20T13:04:19.769Z,26.90
2018-07-20T13:06:47.797Z,26.80
2018-07-20T13:09:15.832Z,26.70
2018-07-20T13:11:43.892Z,26.80
2018-07-20T13:14:12.548Z,26.90
2018-07-20T13:16:41.008Z,26.90
2018-07-20T13:19:09.073Z,27.10
2018-07-20T13:21:37.141Z,27.20
2018-07-20T13:24:05.472Z,27.20
2018-07-20T13:26:33.514Z,27.20
2018-07-20T13:29:01.568Z,27.10
2018-07-20T13:31:29.617Z,27.00
2018-07-20T13:33:57.649Z,27.10
2018-07-20T13:36:25.676Z,27.30
2018-07-20T13:38:53.733Z,27.60
2018-07-20T13:41:21.764Z,27.70
2018-07-20T13:43:49.832Z,27.90
2018-07-20T13:46:17.871Z,28.00
2018-07-20T13:48:45.896Z,28.00
2018-07-20T13:51:13.981Z,27.90
2018-07-20T13:53:42.015Z,27.70
2018-07-20T13:56:10.062Z,27.60
2018-07-20T13:58:38.132Z,27.70
2018-07-20T14:01:06.440Z,27.80
2018-07-20T14:03:34.465Z,27.60
2018-07-20T14:06:02.538Z,27.50
2018-07-20T14:08:30.706Z,27.50
2018-07-20T14:10:58.712Z,27.60
2018-07-20T14:15:54.632Z,27.70
2018-07-20T14:18:22.662Z,27.80
2018-07-20T14:20:50.701Z,27.80
2018-07-20T14:25:46.581Z,28.00
2018-07-20T14:28:14.647Z,28.10
2018-07-20T14:30:42.693Z,28.10
2018-07-20T14:33:11.094Z,28.10
2018-07-20T14:35:39.113Z,27.90
2018-07-20T14:38:07.453Z,27.80
2018-07-20T14:40:35.552Z,27.80
2018-07-20T14:43:03.763Z,27.80
2018-07-20T14:45:31.773Z,27.90
2018-07-20T14:47:59.813Z,27.90
2018-07-20T14:50:27.849Z,27.90
2018-07-20T14:52:55.901Z,27.70
2018-07-20T14:55:23.947Z,27.60
2018-07-20T14:57:52.005Z,27.50
2018-07-20T15:00:20.021Z,27.50
2018-07-20T15:02:48.072Z,27.50
2018-07-20T15:05:16.161Z,27.50
2018-07-20T15:07:44.252Z,27.50
2018-07-20T15:10:12.481Z,27.50
2018-07-20T15:12:40.538Z,27.40
2018-07-20T15:15:09.157Z,27.40
2018-07-20T15:17:37.476Z,27.40
2018-07-20T15:20:06.321Z,27.40
2018-07-20T15:22:34.810Z,27.40
2018-07-20T15:25:02.976Z,27.40
2018-07-20T15:27:31.284Z,27.50
2018-07-20T15:29:59.464Z,27.40
2018-07-20T15:32:27.501Z,27.30
2018-07-20T15:34:55.569Z,27.30
2018-07-20T15:37:23.641Z,27.30
2018-07-20T15:39:51.748Z,27.40
2018-07-20T15:42:19.803Z,27.50
2018-07-20T15:44:48.545Z,27.50
2018-07-20T15:47:16.599Z,27.50
2018-07-20T15:49:44.768Z,27.50
2018-07-20T15:54:40.812Z,27.50
2018-07-20T15:57:08.865Z,27.50
2018-07-20T15:59:36.962Z,27.50
2018-07-20T16:02:05.190Z,27.40
2018-07-20T16:04:33.221Z,27.40
2018-07-20T16:07:01.273Z,27.40
2018-07-20T16:09:29.361Z,27.30
2018-07-20T16:11:57.386Z,27.20
2018-07-20T16:14:25.452Z,27.10
2018-07-20T16:16:53.500Z,27.10
2018-07-20T16:19:21.580Z,27.00
2018-07-20T16:21:49.616Z,27.00
2018-07-20T16:24:17.674Z,27.00
2018-07-20T16:26:45.705Z,27.00
2018-07-20T16:29:13.769Z,26.90
2018-07-20T16:31:41.801Z,26.90
2018-07-20T16:34:10.044Z,26.90
2018-07-20T16:36:38.111Z,26.80
2018-07-20T16:39:08.484Z,26.80
2018-07-20T16:41:36.668Z,26.70
2018-07-20T16:44:04.708Z,26.70
2018-07-20T16:46:32.741Z,26.70
2018-07-20T16:49:00.804Z,26.70
2018-07-20T16:51:28.880Z,26.60
2018-07-20T16:53:56.942Z,26.60
2018-07-20T16:56:24.995Z,26.50
2018-07-20T16:58:53.080Z,26.60
2018-07-20T17:01:21.129Z,26.50
2018-07-20T17:03:49.190Z,26.40
2018-07-20T17:06:17.241Z,26.40
2018-07-20T17:08:45.316Z,26.40
2018-07-20T17:13:41.297Z,26.30
2018-07-20T17:16:09.352Z,26.30
2018-07-20T17:18:37.493Z,26.30
2018-07-20T17:21:05.549Z,26.20
2018-07-20T17:23:33.590Z,26.20
2018-07-20T17:26:01.666Z,26.20
2018-07-20T17:28:29.724Z,26.10
2018-07-20T17:30:57.765Z,26.10
2018-07-20T17:33:25.876Z,26.00
2018-07-20T17:35:53.873Z,26.00
2018-07-20T17:38:22.096Z,26.00
2018-07-20T17:40:50.164Z,26.00
2018-07-20T17:43:18.237Z,26.00
2018-07-20T17:45:46.338Z,26.00
2018-07-20T17:48:14.368Z,26.00
2018-07-20T17:50:42.576Z,26.00
2018-07-20T17:53:10.641Z,26.00
2018-07-20T17:55:38.685Z,26.00
2018-07-20T17:58:06.924Z,26.00
2018-07-20T18:00:34.972Z,26.00
2018-07-20T18:03:03.045Z,26.00
2018-07-20T18:05:31.345Z,25.90
2018-07-20T18:07:59.809Z,25.80
2018-07-20T18:10:27.917Z,25.80
2018-07-20T18:12:55.936Z,25.70
2018-07-20T18:15:24.033Z,25.70
2018-07-20T18:17:52.096Z,25.70
2018-07-20T18:20:20.157Z,25.60
2018-07-20T18:22:48.215Z,25.60
2018-07-20T18:27:44.232Z,25.40
2018-07-20T18:30:12.285Z,25.50
2018-07-20T18:32:40.356Z,25.40
2018-07-20T18:35:08.400Z,25.40
2018-07-20T18:37:36.489Z,25.40
2018-07-20T18:40:05.044Z,25.40
2018-07-20T18:42:33.121Z,25.40
2018-07-20T18:45:01.161Z,25.30
2018-07-20T18:47:29.212Z,25.30
2018-07-20T18:49:57.265Z,25.20
2018-07-20T18:52:25.304Z,25.20
2018-07-20T18:54:53.361Z,25.20
2018-07-20T18:57:21.408Z,25.10
2018-07-20T18:59:49.452Z,25.10
2018-07-20T19:02:17.480Z,25.00
2018-07-20T19:04:45.573Z,25.00
2018-07-20T19:07:13.617Z,25.00
2018-07-20T19:09:41.652Z,24.90
2018-07-20T19:12:09.724Z,24.90
2018-07-20T19:14:37.757Z,24.80
2018-07-20T19:17:05.859Z,24.80
2018-07-20T19:19:33.882Z,24.70
2018-07-20T19:22:01.971Z,24.70
2018-07-20T19:24:29.992Z,24.60
2018-07-20T19:26:58.051Z,24.50
2018-07-20T19:29:26.093Z,24.50
2018-07-20T19:31:54.116Z,24.40
2018-07-20T19:34:22.239Z,24.30
2018-07-20T19:36:50.216Z,24.30
2018-07-20T19:39:18.297Z,24.20
2018-07-20T19:41:46.316Z,24.20
2018-07-20T19:44:14.376Z,24.20
2018-07-20T19:46:42.444Z,24.10
2018-07-20T19:49:10.491Z,24.10
2018-07-20T19:51:38.544Z,24.10
2018-07-20T19:54:06.589Z,24.00
2018-07-20T19:56:34.676Z,24.00
2018-07-20T19:59:02.714Z,23.90
2018-07-20T20:01:30.803Z,23.90
2018-07-20T20:03:58.877Z,23.80
2018-07-20T20:06:26.917Z,23.80
2018-07-20T20:08:54.969Z,23.70
2018-07-20T20:11:23.057Z,23.70
2018-07-20T20:13:51.089Z,23.60
2018-07-20T20:16:19.257Z,23.60
2018-07-20T20:18:47.324Z,23.60
2018-07-20T20:21:15.387Z,23.50
2018-07-20T20:23:43.464Z,23.50
2018-07-20T20:26:11.529Z,23.50
2018-07-20T20:28:39.591Z,23.50
2018-07-20T20:31:07.631Z,23.40
2018-07-20T20:33:35.692Z,23.40
2018-07-20T20:36:03.768Z,23.40
2018-07-20T20:38:31.800Z,23.30
2018-07-20T20:40:59.871Z,23.30
2018-07-20T20:45:55.993Z,23.10
2018-07-20T20:48:24.062Z,23.10
2018-07-20T20:50:52.129Z,23.00
2018-07-20T20:53:20.172Z,23.00
2018-07-20T20:55:48.247Z,22.90
2018-07-20T20:58:16.280Z,22.90
2018-07-20T21:00:44.316Z,22.80
2018-07-20T21:03:12.376Z,22.80
2018-07-20T21:05:40.433Z,22.70
2018-07-20T21:08:08.672Z,22.70
2018-07-20T21:10:36.832Z,22.70
2018-07-20T21:13:05.212Z,22.60
2018-07-20T21:15:33.256Z,22.60
2018-07-20T21:18:01.589Z,22.50
2018-07-20T21:20:29.656Z,22.40
2018-07-20T21:22:57.714Z,22.30
2018-07-20T21:25:25.744Z,22.30
2018-07-20T21:27:53.940Z,22.30
2018-07-20T21:30:22.002Z,22.20
2018-07-20T21:32:50.049Z,22.20
2018-07-20T21:35:18.104Z,22.20
2018-07-20T21:37:46.147Z,22.10
2018-07-20T21:40:14.212Z,22.10
2018-07-20T21:42:42.248Z,22.10
2018-07-20T21:45:10.319Z,22.10
2018-07-20T21:47:38.444Z,22.00
2018-07-20T21:52:34.344Z,21.80
2018-07-20T21:55:02.401Z,21.80
2018-07-20T21:57:30.463Z,21.70
2018-07-20T21:59:58.519Z,21.70
2018-07-20T22:04:54.457Z,21.60
2018-07-20T22:07:22.483Z,21.60
2018-07-20T22:09:50.524Z,21.60
2018-07-20T22:12:19.297Z,21.50
2018-07-20T22:17:15.181Z,21.50
2018-07-20T22:19:43.225Z,21.50
2018-07-20T22:22:11.292Z,21.40
2018-07-20T22:24:39.355Z,21.40
2018-07-20T22:27:07.421Z,21.30
2018-07-20T22:29:35.497Z,21.20
2018-07-20T22:32:03.592Z,21.20
2018-07-20T22:34:31.649Z,21.20
2018-07-20T22:36:59.702Z,21.10
2018-07-20T22:39:35.478Z,21.10
2018-07-20T22:42:03.745Z,21.00
2018-07-20T22:44:31.814Z,21.00
2018-07-20T22:46:59.929Z,20.90
2018-07-20T22:51:56.349Z,20.90
2018-07-20T22:54:24.398Z,20.80
2018-07-20T22:56:52.509Z,20.70
2018-07-20T22:59:20.868Z,20.70
2018-07-20T23:01:48.928Z,20.70
2018-07-20T23:04:17.001Z,20.70
2018-07-20T23:06:45.090Z,20.70
2018-07-20T23:09:13.590Z,20.60
2018-07-20T23:11:41.810Z,20.50
2018-07-20T23:14:09.931Z,20.50
2018-07-20T23:16:38.245Z,20.40
2018-07-20T23:19:06.744Z,20.40
2018-07-20T23:21:34.817Z,20.40
2018-07-20T23:24:02.860Z,20.40
2018-07-20T23:26:30.995Z,20.40
2018-07-20T23:28:59.051Z,20.40
2018-07-20T23:31:27.109Z,20.40
2018-07-20T23:33:55.201Z,20.50
2018-07-20T23:36:23.244Z,20.40
2018-07-20T23:38:51.336Z,20.40
2018-07-20T23:41:19.416Z,20.40
2018-07-20T23:43:47.501Z,20.40
2018-07-20T23:46:15.538Z,20.40
2018-07-20T23:48:43.606Z,20.40
2018-07-20T23:51:11.647Z,20.40
2018-07-20T23:53:39.701Z,20.40
2018-07-20T23:56:07.724Z,20.50
2018-07-20T23:58:35.781Z,20.50
